Time;durP1;ratioP1;P1;durP2;ratioP2;P2;SDS_P1;SDS_P2;PMS_P1;PMS_P2;Temp;Humidity;BMP_temperature;BMP_pressure;BME280_temperature;BME280_humidity;BME280_pressure;Samples;Min_cycle;Max_cycle;Signal;HPM_P1;HPM_P2
2022/03/08 00:00:59;;;;;;;20.63;13.83;;;;;;;;;;4416815;32;20328;-53
2022/03/08 00:03:24;;;;;;;24.53;15.43;;;;;;;;;;4417089;32;20364;-53
2022/03/08 00:05:50;;;;;;;24.70;15.27;;;;;;;;;;4417335;32;20327;-54
2022/03/08 00:08:16;;;;;;;26.57;13.83;;;;;;;;;;4417184;32;20672;-53
2022/03/08 00:10:42;;;;;;;21.17;12.77;;;;;;;;;;4415993;32;20257;-52
2022/03/08 00:13:07;;;;;;;25.80;14.17;;;;;;;;;;4417126;32;20251;-51
2022/03/08 00:15:33;;;;;;;21.87;13.23;;;;;;;;;;4425201;32;20287;-52
2022/03/08 00:17:58;;;;;;;15.97;10.30;;;;;;;;;;4426920;32;20437;-53
2022/03/08 00:20:24;;;;;;;17.93;11.63;;;;;;;;;;4416768;32;20253;-53
2022/03/08 00:22:50;;;;;;;17.63;11.60;;;;;;;;;;4416934;32;20263;-53
2022/03/08 00:25:16;;;;;;;18.63;11.27;;;;;;;;;;4413440;32;20736;-54
2022/03/08 00:27:45;;;;;;;19.37;11.83;;;;;;;;;;4415954;32;20296;-52
2022/03/08 00:30:12;;;;;;;16.37;11.87;;;;;;;;;;4410675;32;20293;-53
2022/03/08 00:32:38;;;;;;;19.70;12.03;;;;;;;;;;4415780;32;20220;-52
2022/03/08 00:35:05;;;;;;;15.10;10.63;;;;;;;;;;4411309;32;20304;-53
2022/03/08 00:37:30;;;;;;;20.33;11.30;;;;;;;;;;4414825;32;20688;-52
2022/03/08 00:39:56;;;;;;;18.70;10.50;;;;;;;;;;4416416;32;20300;-54
2022/03/08 00:42:21;;;;;;;21.10;11.03;;;;;;;;;;4416928;32;20251;-53
2022/03/08 00:44:49;;;;;;;18.63;10.43;;;;;;;;;;4416422;32;20347;-55
2022/03/08 00:47:15;;;;;;;17.33;11.07;;;;;;;;;;4415490;32;20236;-54
2022/03/08 00:49:40;;;;;;;21.63;11.73;;;;;;;;;;4416681;32;20297;-54
2022/03/08 00:52:07;;;;;;;17.90;10.43;;;;;;;;;;4417196;32;20249;-54
2022/03/08 00:54:33;;;;;;;21.17;12.23;;;;;;;;;;4416319;32;20382;-54
2022/03/08 00:56:59;;;;;;;21.63;12.23;;;;;;;;;;4416008;32;20330;-53
2022/03/08 00:59:24;;;;;;;16.70;11.33;;;;;;;;;;4414739;32;20225;-53
2022/03/08 01:01:50;;;;;;;31.20;14.93;;;;;;;;;;4401554;32;20221;-51
2022/03/08 01:04:16;;;;;;;21.87;12.17;;;;;;;;;;4405088;32;20201;-52
2022/03/08 01:06:42;;;;;;;23.97;9.70;;;;;;;;;;4401152;32;20257;-52
2022/03/08 01:09:08;;;;;;;21.17;8.60;;;;;;;;;;4401271;32;20251;-53
2022/03/08 01:11:36;;;;;;;12.13;7.80;;;;;;;;;;4401314;32;20598;-53
2022/03/08 01:14:01;;;;;;;12.67;8.00;;;;;;;;;;4401075;32;20241;-53
2022/03/08 01:16:27;;;;;;;12.63;7.33;;;;;;;;;;4414620;32;20275;-53
2022/03/08 01:18:52;;;;;;;13.23;6.77;;;;;;;;;;4415772;32;20369;-53
2022/03/08 01:21:18;;;;;;;9.67;6.20;;;;;;;;;;4401998;32;20444;-52
2022/03/08 01:23:43;;;;;;;8.90;6.73;;;;;;;;;;4402458;32;20580;-52
2022/03/08 01:26:09;;;;;;;6.93;5.70;;;;;;;;;;4411884;32;20193;-52
2022/03/08 01:28:35;;;;;;;9.37;6.60;;;;;;;;;;4416331;32;20246;-52
2022/03/08 01:31:01;;;;;;;6.27;5.40;;;;;;;;;;4408600;32;20620;-53
2022/03/08 01:33:27;;;;;;;9.97;6.27;;;;;;;;;;4391177;32;20693;-52
2022/03/08 01:35:52;;;;;;;10.10;6.57;;;;;;;;;;4394320;32;20327;-53
2022/03/08 01:38:18;;;;;;;13.23;6.30;;;;;;;;;;4418423;32;20257;-52
2022/03/08 01:40:43;;;;;;;8.33;6.53;;;;;;;;;;4409831;32;20503;-53
2022/03/08 01:43:09;;;;;;;10.60;6.07;;;;;;;;;;4404263;32;20782;-52
2022/03/08 01:45:35;;;;;;;9.20;7.17;;;;;;;;;;4414541;32;20276;-52
2022/03/08 01:48:00;;;;;;;9.60;6.17;;;;;;;;;;4418085;32;20236;-52
2022/03/08 01:50:26;;;;;;;11.03;6.87;;;;;;;;;;4397651;32;20730;-54
2022/03/08 01:52:52;;;;;;;12.80;8.23;;;;;;;;;;4404463;32;20308;-53
2022/03/08 01:55:18;;;;;;;13.33;8.00;;;;;;;;;;4408356;32;20283;-54
2022/03/08 01:57:46;;;;;;;20.43;10.83;;;;;;;;;;4418515;32;20332;-53
2022/03/08 02:00:14;;;;;;;18.43;11.00;;;;;;;;;;4413019;32;20271;-53
2022/03/08 02:02:41;;;;;;;17.73;9.47;;;;;;;;;;4404194;32;20279;-53
2022/03/08 02:05:07;;;;;;;14.50;9.87;;;;;;;;;;4408658;32;20201;-53
2022/03/08 02:07:32;;;;;;;15.97;10.10;;;;;;;;;;4418902;32;20660;-52
2022/03/08 02:09:58;;;;;;;17.37;10.70;;;;;;;;;;4414217;32;20284;-54
2022/03/08 02:12:24;;;;;;;16.07;9.87;;;;;;;;;;4389963;32;20307;-52
2022/03/08 02:14:49;;;;;;;16.87;10.23;;;;;;;;;;4409466;32;20637;-53
2022/03/08 02:17:15;;;;;;;17.57;11.73;;;;;;;;;;4389925;32;20248;-52
2022/03/08 02:19:40;;;;;;;16.50;10.70;;;;;;;;;;4415116;32;20209;-53
2022/03/08 02:22:06;;;;;;;21.67;12.67;;;;;;;;;;4403820;32;20295;-52
2022/03/08 02:24:32;;;;;;;20.73;12.87;;;;;;;;;;4412318;32;20592;-54
2022/03/08 02:26:59;;;;;;;23.73;12.90;;;;;;;;;;4418748;32;20618;-52
2022/03/08 02:29:24;;;;;;;22.47;11.07;;;;;;;;;;4416749;32;20230;-53
2022/03/08 02:31:50;;;;;;;27.03;11.80;;;;;;;;;;4403608;32;20298;-53
2022/03/08 02:34:16;;;;;;;14.50;11.20;;;;;;;;;;4415758;32;20275;-53
2022/03/08 02:36:56;;;;;;;22.13;12.47;;;;;;;;;;4417718;32;20295;-53
2022/03/08 02:39:22;;;;;;;20.13;12.37;;;;;;;;;;4417073;32;20654;-51
2022/03/08 02:41:47;;;;;;;29.67;14.80;;;;;;;;;;4402752;32;20225;-52
2022/03/08 02:44:13;;;;;;;34.13;18.33;;;;;;;;;;4403399;32;20317;-52
2022/03/08 02:46:38;;;;;;;50.40;24.97;;;;;;;;;;4414593;32;20545;-52
2022/03/08 02:49:04;;;;;;;66.23;29.53;;;;;;;;;;4417752;32;20288;-52
2022/03/08 02:51:29;;;;;;;58.20;27.60;;;;;;;;;;4418395;32;20639;-52
2022/03/08 02:53:55;;;;;;;37.63;19.47;;;;;;;;;;4418599;32;20570;-53
2022/03/08 02:56:21;;;;;;;30.70;18.20;;;;;;;;;;4418160;32;20743;-52
2022/03/08 02:58:47;;;;;;;24.67;15.80;;;;;;;;;;4417119;32;20240;-53
2022/03/08 03:01:12;;;;;;;19.53;12.13;;;;;;;;;;4418313;32;20264;-54
2022/03/08 03:03:38;;;;;;;15.00;10.23;;;;;;;;;;4418334;32;20838;-51
2022/03/08 03:06:03;;;;;;;14.60;9.67;;;;;;;;;;4417939;32;20193;-52
2022/03/08 03:08:29;;;;;;;15.80;10.40;;;;;;;;;;4417634;32;20327;-53
2022/03/08 03:10:54;;;;;;;15.80;9.70;;;;;;;;;;4418479;32;20286;-52
2022/03/08 03:13:20;;;;;;;18.20;11.83;;;;;;;;;;4417997;32;20240;-54
2022/03/08 03:15:45;;;;;;;22.47;13.13;;;;;;;;;;4418282;32;20291;-52
2022/03/08 03:18:11;;;;;;;20.40;12.93;;;;;;;;;;4418172;32;20632;-53
2022/03/08 03:20:36;;;;;;;16.90;11.83;;;;;;;;;;4418198;32;20296;-53
2022/03/08 03:23:02;;;;;;;19.13;11.70;;;;;;;;;;4417455;32;20229;-52
2022/03/08 03:25:28;;;;;;;20.90;12.03;;;;;;;;;;4413483;32;20265;-54
2022/03/08 03:27:56;;;;;;;18.80;10.97;;;;;;;;;;4404075;32;20276;-52
2022/03/08 03:30:22;;;;;;;18.33;11.13;;;;;;;;;;4417231;32;20256;-53
2022/03/08 03:32:47;;;;;;;19.27;10.23;;;;;;;;;;4417920;32;20217;-54
2022/03/08 03:35:13;;;;;;;15.67;10.40;;;;;;;;;;4417893;32;20276;-54
2022/03/08 03:37:39;;;;;;;17.13;10.83;;;;;;;;;;4404178;32;20617;-52
2022/03/08 03:40:05;;;;;;;17.97;11.80;;;;;;;;;;4417281;32;20255;-53
2022/03/08 03:42:31;;;;;;;18.37;13.03;;;;;;;;;;4417727;32;20323;-52
2022/03/08 03:44:57;;;;;;;23.43;12.53;;;;;;;;;;4417890;32;20288;-54
2022/03/08 03:47:23;;;;;;;21.47;13.60;;;;;;;;;;4418090;32;20661;-53
2022/03/08 03:49:48;;;;;;;18.53;11.47;;;;;;;;;;4416713;32;20248;-53
2022/03/08 03:52:14;;;;;;;20.73;11.30;;;;;;;;;;4417513;32;20300;-53
2022/03/08 03:54:39;;;;;;;21.37;13.87;;;;;;;;;;4418000;32;20277;-53
2022/03/08 03:57:05;;;;;;;19.17;11.83;;;;;;;;;;4417056;32;20304;-52
2022/03/08 03:59:30;;;;;;;17.47;12.20;;;;;;;;;;4417626;32;20260;-53
2022/03/08 04:01:56;;;;;;;21.23;13.20;;;;;;;;;;4417683;32;20556;-53
2022/03/08 04:04:21;;;;;;;20.13;12.70;;;;;;;;;;4417157;32;20219;-53
2022/03/08 04:06:47;;;;;;;17.13;12.23;;;;;;;;;;4417287;32;20240;-53
2022/03/08 04:09:13;;;;;;;19.30;11.90;;;;;;;;;;4417266;32;20221;-52
2022/03/08 04:11:41;;;;;;;15.50;11.07;;;;;;;;;;4417121;32;20314;-52
2022/03/08 04:14:07;;;;;;;21.13;13.53;;;;;;;;;;4416785;32;20205;-52
2022/03/08 04:16:32;;;;;;;25.13;15.33;;;;;;;;;;4403437;32;20286;-53
2022/03/08 04:18:58;;;;;;;20.23;13.43;;;;;;;;;;4417519;32;20587;-53
2022/03/08 04:21:23;;;;;;;20.50;12.83;;;;;;;;;;4404101;32;20371;-51
2022/03/08 04:23:49;;;;;;;19.97;11.73;;;;;;;;;;4410276;32;20371;-52
2022/03/08 04:26:14;;;;;;;15.60;10.67;;;;;;;;;;4416350;32;20272;-53
2022/03/08 04:28:40;;;;;;;18.83;12.27;;;;;;;;;;4417091;32;20617;-53
2022/03/08 04:31:05;;;;;;;19.47;12.40;;;;;;;;;;4417056;32;20260;-53
2022/03/08 04:33:31;;;;;;;18.93;13.20;;;;;;;;;;4417340;32;20253;-52
2022/03/08 04:35:56;;;;;;;18.90;12.63;;;;;;;;;;4417162;32;20276;-51
2022/03/08 04:38:21;;;;;;;20.83;13.17;;;;;;;;;;4417253;32;20273;-52
2022/03/08 04:40:47;;;;;;;23.47;13.57;;;;;;;;;;4417105;32;20268;-52
2022/03/08 04:43:12;;;;;;;27.23;17.50;;;;;;;;;;4416309;32;20244;-52
2022/03/08 04:45:38;;;;;;;22.47;14.83;;;;;;;;;;4416599;32;20598;-54
2022/03/08 04:48:04;;;;;;;22.67;13.37;;;;;;;;;;4417245;32;20827;-53
2022/03/08 04:50:29;;;;;;;25.03;14.73;;;;;;;;;;4416854;32;20280;-53
2022/03/08 04:52:55;;;;;;;23.47;14.60;;;;;;;;;;4416958;32;20647;-53
2022/03/08 04:55:21;;;;;;;22.30;14.03;;;;;;;;;;4416950;32;20697;-55
2022/03/08 04:57:47;;;;;;;21.17;13.90;;;;;;;;;;4416481;32;20237;-53
2022/03/08 05:00:13;;;;;;;22.43;14.67;;;;;;;;;;4416947;32;20294;-53
2022/03/08 05:02:40;;;;;;;22.27;12.93;;;;;;;;;;4416013;32;20305;-52
2022/03/08 05:05:08;;;;;;;18.77;12.87;;;;;;;;;;4416545;32;20259;-52
2022/03/08 05:07:35;;;;;;;21.17;13.50;;;;;;;;;;4416474;32;20287;-52
2022/03/08 05:10:02;;;;;;;24.27;14.17;;;;;;;;;;4416663;32;20189;-53
2022/03/08 05:12:27;;;;;;;27.97;15.70;;;;;;;;;;4416641;32;20251;-53
2022/03/08 05:14:53;;;;;;;22.97;13.47;;;;;;;;;;4402382;32;20898;-52
2022/03/08 05:17:18;;;;;;;29.80;16.20;;;;;;;;;;4400236;32;20630;-53
2022/03/08 05:19:44;;;;;;;22.97;15.63;;;;;;;;;;4404046;32;20239;-53
2022/03/08 05:22:11;;;;;;;20.37;13.10;;;;;;;;;;4416315;32;20649;-53
2022/03/08 05:24:37;;;;;;;17.13;12.83;;;;;;;;;;4413214;32;20235;-54
2022/03/08 05:27:03;;;;;;;25.27;13.63;;;;;;;;;;4416160;32;20225;-53
2022/03/08 05:29:31;;;;;;;29.77;13.73;;;;;;;;;;4416437;32;20353;-54
2022/03/08 05:31:57;;;;;;;24.20;13.90;;;;;;;;;;4416517;32;20686;-53
2022/03/08 05:34:22;;;;;;;19.20;13.70;;;;;;;;;;4400882;32;20213;-52
2022/03/08 05:36:48;;;;;;;18.07;12.10;;;;;;;;;;4401207;32;20668;-52
2022/03/08 05:39:13;;;;;;;22.03;12.97;;;;;;;;;;4400898;32;20355;-54
2022/03/08 05:41:39;;;;;;;24.77;15.23;;;;;;;;;;4400850;32;20225;-53
2022/03/08 05:44:04;;;;;;;23.53;14.17;;;;;;;;;;4400915;32;20286;-53
2022/03/08 05:46:30;;;;;;;20.23;14.73;;;;;;;;;;4401133;32;20511;-53
2022/03/08 05:48:55;;;;;;;25.57;16.47;;;;;;;;;;4401092;32;20245;-53
2022/03/08 05:51:21;;;;;;;26.23;14.20;;;;;;;;;;4400608;32;20345;-53
2022/03/08 05:53:46;;;;;;;24.30;15.80;;;;;;;;;;4400935;32;20516;-53
2022/03/08 05:56:11;;;;;;;27.43;17.97;;;;;;;;;;4400861;32;20294;-52
2022/03/08 05:58:37;;;;;;;24.00;14.03;;;;;;;;;;4400773;32;20319;-52
2022/03/08 06:01:03;;;;;;;31.20;13.83;;;;;;;;;;4400652;32;20277;-53
2022/03/08 06:03:28;;;;;;;24.70;14.33;;;;;;;;;;4400486;32;20747;-53
2022/03/08 06:05:54;;;;;;;21.83;14.13;;;;;;;;;;4407771;32;20303;-53
2022/03/08 06:08:19;;;;;;;19.80;12.93;;;;;;;;;;4415899;32;20206;-54
2022/03/08 06:10:45;;;;;;;17.77;12.00;;;;;;;;;;4402222;32;20406;-54
2022/03/08 06:13:10;;;;;;;16.50;11.83;;;;;;;;;;4415381;32;20651;-53
2022/03/08 06:15:36;;;;;;;24.40;12.53;;;;;;;;;;4417433;32;20619;-52
2022/03/08 06:18:01;;;;;;;16.33;11.27;;;;;;;;;;4418276;32;20550;-55
2022/03/08 06:20:27;;;;;;;16.93;10.23;;;;;;;;;;4418507;32;20249;-54
2022/03/08 06:22:54;;;;;;;16.93;11.20;;;;;;;;;;4418818;32;20242;-55
2022/03/08 06:25:19;;;;;;;18.10;12.17;;;;;;;;;;4412604;32;20338;-54
2022/03/08 06:27:45;;;;;;;17.23;10.43;;;;;;;;;;4404697;32;20277;-55
2022/03/08 06:30:11;;;;;;;16.47;11.20;;;;;;;;;;4417609;32;20222;-53
2022/03/08 06:32:36;;;;;;;16.60;10.33;;;;;;;;;;4408672;32;20614;-53
2022/03/08 06:35:02;;;;;;;18.73;10.50;;;;;;;;;;4403273;32;20270;-52
2022/03/08 06:37:27;;;;;;;22.97;10.83;;;;;;;;;;4402108;32;20237;-53
2022/03/08 06:39:53;;;;;;;16.13;9.83;;;;;;;;;;4402028;32;20264;-52
2022/03/08 06:42:19;;;;;;;19.37;11.30;;;;;;;;;;4402592;32;20307;-52
2022/03/08 06:44:44;;;;;;;17.30;10.33;;;;;;;;;;4402412;32;20306;-53
2022/03/08 06:47:10;;;;;;;12.27;10.03;;;;;;;;;;4406924;32;20364;-52
2022/03/08 06:49:37;;;;;;;13.57;9.27;;;;;;;;;;4415099;32;20557;-53
2022/03/08 06:52:03;;;;;;;18.13;10.00;;;;;;;;;;4415882;32;20338;-54
2022/03/08 06:54:29;;;;;;;13.30;9.43;;;;;;;;;;4416195;32;20446;-52
2022/03/08 06:56:54;;;;;;;13.90;9.97;;;;;;;;;;4416247;32;20288;-52
2022/03/08 06:59:20;;;;;;;13.20;9.67;;;;;;;;;;4402104;32;20280;-52
2022/03/08 07:01:46;;;;;;;18.70;10.00;;;;;;;;;;4402897;32;20347;-52
2022/03/08 07:04:11;;;;;;;16.07;9.93;;;;;;;;;;4408018;32;20224;-53
2022/03/08 07:06:37;;;;;;;17.87;11.37;;;;;;;;;;4402772;32;20281;-53
2022/03/08 07:09:03;;;;;;;20.73;11.37;;;;;;;;;;4402720;32;20316;-53
2022/03/08 07:11:28;;;;;;;21.97;10.33;;;;;;;;;;4405554;32;20308;-53
2022/03/08 07:13:54;;;;;;;19.73;11.50;;;;;;;;;;4394583;32;20253;-53
2022/03/08 07:16:20;;;;;;;24.83;10.63;;;;;;;;;;4410022;32;20264;-53
2022/03/08 07:18:45;;;;;;;15.70;9.83;;;;;;;;;;4408703;32;20222;-53
2022/03/08 07:21:11;;;;;;;18.60;11.83;;;;;;;;;;4413577;32;20276;-56
2022/03/08 07:23:36;;;;;;;21.37;10.93;;;;;;;;;;4394396;32;20264;-53
2022/03/08 07:26:02;;;;;;;19.03;14.73;;;;;;;;;;4412977;32;20284;-53
2022/03/08 07:28:28;;;;;;;18.43;12.17;;;;;;;;;;4391769;32;20230;-53
2022/03/08 07:30:53;;;;;;;26.33;14.97;;;;;;;;;;4402290;32;20789;-53
2022/03/08 07:33:19;;;;;;;17.80;11.63;;;;;;;;;;4413716;32;20337;-54
2022/03/08 07:35:44;;;;;;;16.67;11.50;;;;;;;;;;4417447;32;20988;-53
2022/03/08 07:38:09;;;;;;;19.43;14.37;;;;;;;;;;4416872;32;20260;-53
2022/03/08 07:40:35;;;;;;;16.73;13.07;;;;;;;;;;4417364;32;20300;-53
2022/03/08 07:43:02;;;;;;;13.57;9.87;;;;;;;;;;4406448;32;20209;-54
2022/03/08 07:45:28;;;;;;;16.50;10.63;;;;;;;;;;4402243;32;20751;-54
2022/03/08 07:47:54;;;;;;;16.67;10.57;;;;;;;;;;4410645;32;20213;-53
2022/03/08 07:50:22;;;;;;;16.60;9.60;;;;;;;;;;4417224;32;20298;-54
2022/03/08 07:52:47;;;;;;;14.23;9.53;;;;;;;;;;4402815;32;20231;-53
2022/03/08 07:55:12;;;;;;;14.03;8.40;;;;;;;;;;4416180;32;20213;-53
2022/03/08 07:57:38;;;;;;;23.10;12.40;;;;;;;;;;4408204;32;20775;-53
2022/03/08 08:00:05;;;;;;;18.73;12.43;;;;;;;;;;4401578;32;20391;-54
2022/03/08 08:02:30;;;;;;;23.70;13.67;;;;;;;;;;4401397;32;20231;-53
2022/03/08 08:04:56;;;;;;;13.77;9.93;;;;;;;;;;4401598;32;20344;-54
2022/03/08 08:07:22;;;;;;;14.00;10.20;;;;;;;;;;4407151;32;20355;-54
2022/03/08 08:09:47;;;;;;;16.07;10.37;;;;;;;;;;4416465;32;20251;-54
2022/03/08 08:12:13;;;;;;;23.77;16.07;;;;;;;;;;4410448;32;20407;-54
2022/03/08 08:14:39;;;;;;;21.50;12.70;;;;;;;;;;4400978;32;20312;-53
2022/03/08 08:17:05;;;;;;;16.63;11.00;;;;;;;;;;4408796;32;20627;-54
2022/03/08 08:19:31;;;;;;;18.20;12.10;;;;;;;;;;4414622;32;20314;-53
2022/03/08 08:21:56;;;;;;;17.37;11.43;;;;;;;;;;4404570;32;20295;-56
2022/03/08 08:24:22;;;;;;;14.20;9.87;;;;;;;;;;4409039;32;20241;-53
2022/03/08 08:26:47;;;;;;;14.60;10.47;;;;;;;;;;4409143;32;20356;-54
2022/03/08 08:29:12;;;;;;;13.90;8.33;;;;;;;;;;4402030;32;20261;-54
2022/03/08 08:31:38;;;;;;;10.77;7.67;;;;;;;;;;4416038;32;20263;-53
2022/03/08 08:34:03;;;;;;;13.33;9.70;;;;;;;;;;4416179;32;20629;-54
2022/03/08 08:36:29;;;;;;;18.63;10.27;;;;;;;;;;4416254;32;20324;-53
2022/03/08 08:38:55;;;;;;;13.57;8.27;;;;;;;;;;4416385;32;20218;-54
2022/03/08 08:41:20;;;;;;;13.77;9.90;;;;;;;;;;4403044;32;20306;-53
2022/03/08 08:43:46;;;;;;;15.60;8.83;;;;;;;;;;4416335;32;20247;-54
2022/03/08 08:46:11;;;;;;;20.43;12.00;;;;;;;;;;4415473;32;20253;-53
2022/03/08 08:48:37;;;;;;;15.37;11.13;;;;;;;;;;4415520;32;20341;-53
2022/03/08 08:51:04;;;;;;;23.63;13.00;;;;;;;;;;4415467;32;20298;-56
2022/03/08 08:53:29;;;;;;;23.23;13.00;;;;;;;;;;4415142;32;20302;-52
2022/03/08 08:55:55;;;;;;;18.77;10.90;;;;;;;;;;4415913;32;20312;-53
2022/03/08 08:58:20;;;;;;;18.43;11.97;;;;;;;;;;4415484;32;20384;-53
2022/03/08 09:00:46;;;;;;;17.87;10.27;;;;;;;;;;4416294;32;20664;-54
2022/03/08 09:03:14;;;;;;;18.00;12.23;;;;;;;;;;4415572;32;20276;-53
2022/03/08 09:05:44;;;;;;;17.67;9.63;;;;;;;;;;4416095;32;20495;-54
2022/03/08 09:08:10;;;;;;;31.20;17.73;;;;;;;;;;4415168;32;20322;-54
2022/03/08 09:10:36;;;;;;;22.87;13.97;;;;;;;;;;4415684;32;20299;-54
2022/03/08 09:13:03;;;;;;;12.60;8.07;;;;;;;;;;4415347;32;20210;-53
2022/03/08 09:15:28;;;;;;;9.83;7.00;;;;;;;;;;4402496;32;20225;-54
2022/03/08 09:17:54;;;;;;;19.17;9.00;;;;;;;;;;4405145;32;20558;-54
2022/03/08 09:20:20;;;;;;;12.23;8.13;;;;;;;;;;4394926;32;20304;-54
2022/03/08 09:22:45;;;;;;;14.97;9.17;;;;;;;;;;4413245;32;20271;-53
2022/03/08 09:25:11;;;;;;;15.00;9.50;;;;;;;;;;4414426;32;20518;-54
2022/03/08 09:27:36;;;;;;;23.47;12.67;;;;;;;;;;4414520;32;20561;-53
2022/03/08 09:30:04;;;;;;;12.50;8.77;;;;;;;;;;4402172;32;20315;-53
2022/03/08 09:32:30;;;;;;;11.23;7.53;;;;;;;;;;4400933;32;20272;-54
2022/03/08 09:34:56;;;;;;;32.23;16.13;;;;;;;;;;4401054;32;20676;-55
2022/03/08 09:37:21;;;;;;;13.60;8.93;;;;;;;;;;4399811;32;20277;-54
2022/03/08 09:39:47;;;;;;;20.70;14.03;;;;;;;;;;4400659;32;20225;-53
2022/03/08 09:42:12;;;;;;;25.10;15.23;;;;;;;;;;4400500;32;20737;-53
2022/03/08 09:44:38;;;;;;;36.70;17.77;;;;;;;;;;4400970;32;20232;-54
2022/03/08 09:47:05;;;;;;;20.37;11.83;;;;;;;;;;4400652;32;20322;-53
2022/03/08 09:49:32;;;;;;;14.00;10.00;;;;;;;;;;4400829;32;20249;-53
2022/03/08 09:51:58;;;;;;;15.67;12.33;;;;;;;;;;4415131;32;20236;-54
2022/03/08 09:54:24;;;;;;;12.17;8.67;;;;;;;;;;4418419;32;20577;-53
2022/03/08 09:56:49;;;;;;;17.07;10.53;;;;;;;;;;4407398;32;20292;-56
2022/03/08 09:59:19;;;;;;;22.47;10.63;;;;;;;;;;4402807;32;20527;-53
2022/03/08 10:01:46;;;;;;;24.70;14.07;;;;;;;;;;4413624;32;20201;-53
2022/03/08 10:04:19;;;;;;;21.40;12.40;;;;;;;;;;4404787;32;20307;-53
2022/03/08 10:06:47;;;;;;;23.00;11.13;;;;;;;;;;4418301;32;20230;-52
2022/03/08 10:09:15;;;;;;;26.77;13.50;;;;;;;;;;4417306;32;20576;-55
2022/03/08 10:11:41;;;;;;;17.30;9.80;;;;;;;;;;4417958;32;20283;-53
2022/03/08 10:14:14;;;;;;;11.80;9.93;;;;;;;;;;4418182;32;20321;-53
2022/03/08 10:16:47;;;;;;;14.63;10.70;;;;;;;;;;4408414;32;20210;-53
2022/03/08 10:19:13;;;;;;;21.33;13.47;;;;;;;;;;4402609;32;20317;-52
2022/03/08 10:21:42;;;;;;;33.97;16.00;;;;;;;;;;4417745;32;20300;-52
2022/03/08 10:24:15;;;;;;;23.33;13.07;;;;;;;;;;4412342;32;20345;-53
2022/03/08 10:26:56;;;;;;;27.37;15.37;;;;;;;;;;4409894;32;20628;-53
2022/03/08 10:29:26;;;;;;;27.27;15.03;;;;;;;;;;4415761;32;20274;-53
2022/03/08 10:32:09;;;;;;;19.73;13.50;;;;;;;;;;4413720;32;20263;-53
2022/03/08 10:34:40;;;;;;;20.27;11.10;;;;;;;;;;4418150;32;20312;-54
2022/03/08 10:37:09;;;;;;;16.67;10.10;;;;;;;;;;4404652;32;20658;-53
2022/03/08 10:39:48;;;;;;;24.50;14.63;;;;;;;;;;4401510;32;20220;-53
2022/03/08 10:42:18;;;;;;;20.53;9.47;;;;;;;;;;4415374;32;20242;-53
2022/03/08 10:44:44;;;;;;;27.03;16.67;;;;;;;;;;4416908;32;20622;-53
2022/03/08 10:47:12;;;;;;;16.73;10.97;;;;;;;;;;4416658;32;20286;-54
2022/03/08 10:49:47;;;;;;;15.40;9.47;;;;;;;;;;4417930;32;20362;-54
2022/03/08 10:52:13;;;;;;;17.17;8.90;;;;;;;;;;4416397;32;20213;-53
2022/03/08 10:54:38;;;;;;;9.53;7.20;;;;;;;;;;4415934;32;20386;-53
2022/03/08 10:57:03;;;;;;;21.20;12.37;;;;;;;;;;4417131;32;20819;-53
2022/03/08 10:59:30;;;;;;;15.67;10.20;;;;;;;;;;4417023;32;20374;-53
2022/03/08 11:01:56;;;;;;;27.97;9.77;;;;;;;;;;4416908;32;20399;-53
2022/03/08 11:04:23;;;;;;;20.67;10.80;;;;;;;;;;4417376;32;20558;-54
2022/03/08 11:06:55;;;;;;;41.63;19.23;;;;;;;;;;4406075;32;20206;-54
2022/03/08 11:09:22;;;;;;;28.30;17.20;;;;;;;;;;4402114;32;20350;-54
2022/03/08 11:11:48;;;;;;;32.23;19.27;;;;;;;;;;4401527;32;20266;-55
2022/03/08 11:14:14;;;;;;;35.17;16.73;;;;;;;;;;4401767;32;20287;-53
2022/03/08 11:16:40;;;;;;;96.90;46.80;;;;;;;;;;4401870;32;20312;-55
2022/03/08 11:19:06;;;;;;;54.57;25.67;;;;;;;;;;4401230;32;20753;-54
2022/03/08 11:21:34;;;;;;;80.83;34.03;;;;;;;;;;4405784;32;20356;-55
2022/03/08 11:24:03;;;;;;;79.13;32.80;;;;;;;;;;4406865;32;20369;-54
2022/03/08 11:26:29;;;;;;;34.50;17.10;;;;;;;;;;4414658;32;20305;-55
2022/03/08 11:28:55;;;;;;;80.10;33.73;;;;;;;;;;4415764;32;20348;-55
2022/03/08 11:31:25;;;;;;;34.90;18.67;;;;;;;;;;4416500;32;20217;-54
2022/03/08 11:34:17;;;;;;;32.80;17.03;;;;;;;;;;4417023;32;20610;-54
2022/03/08 11:36:58;;;;;;;32.50;17.30;;;;;;;;;;4416879;32;20594;-53
2022/03/08 11:39:24;;;;;;;29.40;15.53;;;;;;;;;;4416951;32;20339;-52
2022/03/08 11:41:53;;;;;;;20.17;11.07;;;;;;;;;;4416819;32;20209;-54
2022/03/08 11:44:21;;;;;;;30.10;15.07;;;;;;;;;;4417626;32;20253;-53
2022/03/08 11:47:10;;;;;;;40.40;20.50;;;;;;;;;;4417120;32;20560;-53
2022/03/08 11:49:45;;;;;;;22.00;13.73;;;;;;;;;;4416637;32;20239;-55
2022/03/08 11:52:26;;;;;;;21.53;12.13;;;;;;;;;;4416460;32;20201;-54
2022/03/08 11:54:58;;;;;;;21.93;12.83;;;;;;;;;;4417617;32;20202;-53
2022/03/08 11:57:54;;;;;;;16.73;11.27;;;;;;;;;;4411395;32;20229;-54
2022/03/08 12:00:32;;;;;;;15.67;10.97;;;;;;;;;;4403406;32;20347;-54
2022/03/08 12:03:04;;;;;;;17.40;11.67;;;;;;;;;;4416035;32;20318;-54
2022/03/08 12:05:46;;;;;;;23.27;14.67;;;;;;;;;;4416748;32;20617;-54
2022/03/08 12:08:27;;;;;;;37.07;19.60;;;;;;;;;;4416157;32;20284;-53
2022/03/08 12:11:03;;;;;;;15.43;11.37;;;;;;;;;;4412178;32;21343;-53
2022/03/08 12:13:29;;;;;;;12.73;9.27;;;;;;;;;;4401298;32;20201;-53
2022/03/08 12:16:07;;;;;;;15.60;10.57;;;;;;;;;;4405418;32;20257;-53
2022/03/08 12:18:49;;;;;;;33.77;16.97;;;;;;;;;;4411986;32;20364;-55
2022/03/08 12:21:17;;;;;;;31.10;15.17;;;;;;;;;;4401268;32;20279;-54
2022/03/08 12:23:46;;;;;;;29.73;13.17;;;;;;;;;;4396116;32;20303;-53
2022/03/08 12:26:30;;;;;;;30.73;14.33;;;;;;;;;;4389625;32;20730;-53
2022/03/08 12:29:02;;;;;;;40.73;19.77;;;;;;;;;;4398814;32;20594;-53
2022/03/08 12:31:27;;;;;;;22.13;11.13;;;;;;;;;;4399578;32;20301;-54
2022/03/08 12:34:06;;;;;;;42.90;22.93;;;;;;;;;;4399129;32;20280;-54
2022/03/08 12:36:34;;;;;;;16.37;10.03;;;;;;;;;;4400495;32;20618;-54
2022/03/08 12:39:00;;;;;;;16.40;10.53;;;;;;;;;;4401639;32;20328;-53
2022/03/08 12:41:27;;;;;;;14.93;10.37;;;;;;;;;;4401100;32;20421;-53
2022/03/08 12:44:01;;;;;;;18.17;11.87;;;;;;;;;;4401561;32;20530;-53
2022/03/08 12:46:28;;;;;;;19.23;13.90;;;;;;;;;;4400454;32;20238;-53
2022/03/08 12:48:54;;;;;;;25.43;17.60;;;;;;;;;;4399762;32;20311;-54
2022/03/08 12:51:23;;;;;;;30.00;16.50;;;;;;;;;;4399424;32;20324;-54
2022/03/08 12:53:58;;;;;;;23.93;15.57;;;;;;;;;;4399523;32;20264;-54
2022/03/08 12:56:26;;;;;;;33.03;16.07;;;;;;;;;;4408374;32;20284;-53
2022/03/08 12:59:04;;;;;;;35.07;16.50;;;;;;;;;;4403372;32;20284;-55
2022/03/08 13:01:29;;;;;;;31.50;17.30;;;;;;;;;;4401266;32;20284;-54
2022/03/08 13:03:54;;;;;;;21.63;13.60;;;;;;;;;;4401053;32;20680;-55
2022/03/08 13:06:20;;;;;;;24.97;15.27;;;;;;;;;;4401094;32;20661;-53
2022/03/08 13:08:47;;;;;;;64.33;26.50;;;;;;;;;;4401230;32;20257;-54
2022/03/08 13:11:14;;;;;;;66.20;30.00;;;;;;;;;;4400188;32;20827;-54
2022/03/08 13:13:41;;;;;;;39.60;17.80;;;;;;;;;;4403931;32;20239;-53
2022/03/08 13:16:08;;;;;;;63.80;27.87;;;;;;;;;;4403762;32;20202;-54
2022/03/08 13:18:38;;;;;;;52.27;25.50;;;;;;;;;;4406923;32;20237;-54
2022/03/08 13:21:06;;;;;;;26.37;17.23;;;;;;;;;;4421499;32;20221;-54
2022/03/08 13:23:36;;;;;;;33.20;18.53;;;;;;;;;;4428879;32;21546;-54
2022/03/08 13:26:06;;;;;;;52.03;22.00;;;;;;;;;;4408395;32;20270;-55
2022/03/08 13:28:37;;;;;;;31.97;15.77;;;;;;;;;;4415510;32;20416;-54
2022/03/08 13:31:08;;;;;;;31.47;18.40;;;;;;;;;;4410153;32;20225;-54
2022/03/08 13:33:38;;;;;;;27.87;16.80;;;;;;;;;;4400268;32;20249;-54
2022/03/08 13:36:09;;;;;;;32.90;16.17;;;;;;;;;;4406306;32;20194;-53
2022/03/08 13:38:40;;;;;;;31.63;19.23;;;;;;;;;;4415725;32;20675;-54
2022/03/08 13:41:16;;;;;;;20.83;14.10;;;;;;;;;;4420790;32;20275;-53
2022/03/08 13:43:47;;;;;;;32.77;18.37;;;;;;;;;;4400723;32;20692;-53
2022/03/08 13:46:15;;;;;;;29.33;17.93;;;;;;;;;;4399621;32;20222;-54
2022/03/08 13:48:48;;;;;;;21.03;15.80;;;;;;;;;;4400352;32;20230;-54
2022/03/08 13:51:14;;;;;;;24.30;16.53;;;;;;;;;;4400766;32;20227;-54
2022/03/08 13:53:40;;;;;;;30.87;17.07;;;;;;;;;;4403586;32;20585;-53
2022/03/08 13:56:06;;;;;;;29.07;16.23;;;;;;;;;;4409276;32;20281;-55
2022/03/08 13:58:45;;;;;;;21.43;14.57;;;;;;;;;;4426725;32;20371;-54
2022/03/08 14:01:23;;;;;;;26.03;16.53;;;;;;;;;;4431667;32;20298;-54
2022/03/08 14:03:52;;;;;;;30.37;17.00;;;;;;;;;;4405348;32;20444;-53
2022/03/08 14:06:23;;;;;;;24.77;15.50;;;;;;;;;;4400222;32;20238;-54
2022/03/08 14:08:50;;;;;;;28.97;16.83;;;;;;;;;;4399531;32;20332;-54
2022/03/08 14:11:18;;;;;;;34.93;19.30;;;;;;;;;;4415898;32;20196;-54
2022/03/08 14:13:48;;;;;;;28.37;18.60;;;;;;;;;;4406384;32;20226;-54
2022/03/08 14:16:13;;;;;;;23.27;15.40;;;;;;;;;;4390869;32;20574;-53
2022/03/08 14:19:09;;;;;;;38.00;21.40;;;;;;;;;;4402881;32;20330;-54